South Hamilton, MA (01982)

5:10 AM EDT on March 24, 2017 (GMT -0400)
Wenham Country Club | | Change Station

Elev 92 ft 42.60 °N, 70.89 °W | Updated 2 seconds ago

Mostly Cloudy
Mostly Cloudy
24.6 °F
Feels Like 25 °F
N
0.0
Wind Variable Wind from ESE
Gusts 0.0 mph

Today
High -- | Low -- °F
--% Chance of Precip.
Yesterday
High -- | Low -- °F
Precip. -- in
Pressure 30.48 in
Visibility 10.0 miles
Clouds Clear
Windchill 25 °F
Dew Point 10 °F
Humidity 53%
Rainfall 0.00 in
Snow Depth Not available.
6:39 AM 7:00 PM
Waning Crescent, 16% visible
METAR KBVY 240853Z AUTO 00000KT 10SM CLR M05/M11 A3049 RMK AO2 SLP321 T10501106 58011
Pressure 30.48 in
Visibility 10.0 miles
Clouds Clear
Windchill 25 °F
Dew Point 10 °F
Humidity 53%
Rainfall 0.00 in
Snow Depth Not available.
6:39 AM 7:00 PM
Waning Crescent, 16% visible
METAR KBVY 240853Z AUTO 00000KT 10SM CLR M05/M11 A3049 RMK AO2 SLP321 T10501106 58011

Get Severe Weather Alerts

Thanks for signing up!

Be on the lookout for a verification email in your inbox.

You'll start receiving the daily forecast at 8 AM.

×

10-Day Weather Forecast

Almanac

Astronomy

Mar. 24, 2017 Rise Set
Actual Time
Civil Twilight
Nautical Twilight
Astronomical Twilight
Moon
Length of Visible Light
Length of Day
Tomorrow will be .
, % of the Moon is Illuminated

Today's Extremes

State Highs State Lows

Community

WunderPhotos

Upload Photos

1,962,540 photos uploaded!

WunderBlog® & News

Nearby

Air Quality

  Air Quality AQ Index Pollutant
Not available.

Snow Depth

Station Depth Elevation

Earthquake Activity

City Distance Mag. Time & Date
Minimum magnitude displayed is 2.5.

Earthquake Activity

City Distance Mag. Time & Date
Minimum magnitude displayed is 2.5.

Coastal Water Temperatures

Place Temperature

Stations

Nearby Weather Stations

Station Location Temp. Windchill Dew Point Humidity Wind Precip. Elev Updated Type
                   

Watches & Warnings

There are currently no watches in effect.